createdAt,value
2022-09-04T00:00:34.232Z,7.90
2022-09-04T00:03:19.565Z,6.43
2022-09-04T00:05:53.917Z,8.27
2022-09-04T00:08:40.473Z,5.97
2022-09-04T00:11:21.739Z,7.18
2022-09-04T00:13:58.360Z,7.68
2022-09-04T00:16:36.632Z,6.80
2022-09-04T00:19:15.041Z,7.47
2022-09-04T00:21:51.720Z,14.18
2022-09-04T00:24:26.112Z,9.25
2022-09-04T00:27:04.423Z,6.97
2022-09-04T00:29:43.720Z,5.43
2022-09-04T00:32:21.829Z,3.95
2022-09-04T00:35:06.760Z,5.30
2022-09-04T00:37:43.410Z,3.13
2022-09-04T00:40:21.944Z,3.45
2022-09-04T00:43:31.068Z,4.22
2022-09-04T00:46:31.508Z,4.25
2022-09-04T00:49:31.300Z,5.30
2022-09-04T00:52:12.524Z,5.75
2022-09-04T00:55:01.036Z,3.22
2022-09-04T00:58:02.153Z,4.95
2022-09-04T01:00:30.819Z,5.60
2022-09-04T01:03:48.453Z,4.35
2022-09-04T01:06:35.993Z,3.58
2022-09-04T01:09:32.314Z,2.50
2022-09-04T01:12:17.611Z,5.38
2022-09-04T01:14:55.938Z,7.85
2022-09-04T01:17:34.872Z,5.63
2022-09-04T01:20:15.663Z,6.13
2022-09-04T01:23:02.156Z,4.43
2022-09-04T01:25:56.808Z,3.75
2022-09-04T01:28:36.072Z,5.00
2022-09-04T01:31:23.786Z,3.70
2022-09-04T01:34:11.046Z,4.03
2022-09-04T01:36:50.630Z,5.82
2022-09-04T01:39:23.585Z,6.25
2022-09-04T01:42:04.231Z,5.38
2022-09-04T01:44:34.109Z,3.53
2022-09-04T01:47:15.182Z,6.75
2022-09-04T01:49:51.393Z,5.13
2022-09-04T01:52:42.872Z,7.75
2022-09-04T01:55:25.032Z,10.13
2022-09-04T01:58:16.014Z,20.65
2022-09-04T02:00:59.914Z,15.32
2022-09-04T02:03:39.515Z,17.20
2022-09-04T02:06:22.700Z,23.92
2022-09-04T02:09:25.637Z,24.80
2022-09-04T02:12:12.231Z,24.70
2022-09-04T02:14:57.098Z,25.70
2022-09-04T02:17:39.324Z,21.58
2022-09-04T02:20:22.673Z,22.95
2022-09-04T02:23:05.162Z,19.90
2022-09-04T02:25:42.344Z,21.20
2022-09-04T02:28:34.507Z,23.38
2022-09-04T02:31:17.909Z,21.60
2022-09-04T02:33:55.144Z,27.30
2022-09-04T02:36:31.306Z,26.45
2022-09-04T02:39:12.973Z,17.83
2022-09-04T02:41:54.707Z,22.40
2022-09-04T02:44:38.494Z,22.08
2022-09-04T02:47:21.901Z,31.33
2022-09-04T02:50:03.449Z,21.10
2022-09-04T02:52:56.960Z,24.08
2022-09-04T02:55:46.669Z,18.63
2022-09-04T02:58:25.890Z,16.25
2022-09-04T03:01:04.203Z,22.23
2022-09-04T03:03:46.139Z,26.33
2022-09-04T03:06:23.794Z,27.02
2022-09-04T03:09:01.135Z,22.25
2022-09-04T03:11:38.746Z,24.30
2022-09-04T03:14:15.009Z,26.77
2022-09-04T03:16:50.509Z,30.23
2022-09-04T03:19:29.113Z,23.63
2022-09-04T03:22:05.320Z,26.13
2022-09-04T03:25:00.844Z,36.00
2022-09-04T03:30:05.888Z,28.85
2022-09-04T03:32:46.255Z,30.33
2022-09-04T03:35:26.562Z,32.70
2022-09-04T03:38:13.535Z,37.75
2022-09-04T03:40:46.368Z,24.15
2022-09-04T03:43:36.981Z,29.75
2022-09-04T03:46:22.305Z,32.88
2022-09-04T03:49:09.883Z,33.38
2022-09-04T03:51:56.262Z,44.53
2022-09-04T03:54:45.336Z,35.88
2022-09-04T03:57:32.037Z,43.45
2022-09-04T04:00:09.387Z,38.97
2022-09-04T04:03:18.409Z,38.10
2022-09-04T04:06:01.316Z,37.63
2022-09-04T04:09:11.910Z,40.20
2022-09-04T04:12:05.171Z,40.20
2022-09-04T04:14:52.886Z,48.78
2022-09-04T04:17:48.346Z,46.00
2022-09-04T04:20:34.883Z,44.22
2022-09-04T04:23:56.848Z,39.97
2022-09-04T04:26:42.640Z,31.15
2022-09-04T04:29:39.690Z,49.03
2022-09-04T04:32:33.708Z,44.65
2022-09-04T04:35:21.375Z,48.78
2022-09-04T04:38:14.002Z,55.25
2022-09-04T04:41:06.267Z,49.80
2022-09-04T04:43:52.409Z,59.05
2022-09-04T04:46:35.196Z,50.08
2022-09-04T04:49:49.121Z,44.67
2022-09-04T04:52:30.265Z,42.42
2022-09-04T04:55:17.703Z,34.00
2022-09-04T04:58:02.467Z,37.30
2022-09-04T05:00:41.751Z,46.72
2022-09-04T05:03:20.599Z,41.03
2022-09-04T05:06:02.131Z,42.08
2022-09-04T05:08:47.815Z,45.63
2022-09-04T05:11:25.823Z,40.95
2022-09-04T05:14:08.002Z,51.85
2022-09-04T05:16:54.879Z,40.00
2022-09-04T05:19:33.625Z,47.83
2022-09-04T05:22:13.495Z,49.38
2022-09-04T05:24:56.413Z,44.63
2022-09-04T05:27:49.155Z,42.75
2022-09-04T05:30:24.272Z,48.50
2022-09-04T05:33:02.142Z,47.58
2022-09-04T05:35:43.345Z,56.22
2022-09-04T05:38:19.156Z,46.80
2022-09-04T05:41:05.295Z,47.67
2022-09-04T05:44:01.571Z,45.47
2022-09-04T05:46:51.812Z,54.20
2022-09-04T05:49:37.336Z,48.33
2022-09-04T05:52:50.607Z,48.58
2022-09-04T05:56:00.567Z,53.72
2022-09-04T05:58:49.579Z,42.15
2022-09-04T06:01:40.070Z,46.35
2022-09-04T06:04:42.061Z,58.47
2022-09-04T06:07:20.921Z,55.60
2022-09-04T06:10:04.507Z,58.83
2022-09-04T06:13:09.243Z,55.13
2022-09-04T06:15:52.770Z,46.58
2022-09-04T06:18:49.606Z,54.08
2022-09-04T06:21:49.630Z,46.58
2022-09-04T06:24:58.457Z,54.47
2022-09-04T06:27:48.584Z,47.45
2022-09-04T06:30:18.811Z,55.58
2022-09-04T06:33:36.112Z,55.53
2022-09-04T06:36:35.083Z,52.55
2022-09-04T06:39:23.801Z,54.25
2022-09-04T06:42:11.855Z,66.07
2022-09-04T06:44:59.740Z,50.95
2022-09-04T06:47:43.360Z,66.30
2022-09-04T06:50:27.296Z,63.45
2022-09-04T06:53:18.254Z,51.25
2022-09-04T06:56:04.385Z,49.55
2022-09-04T06:59:10.088Z,52.35
2022-09-04T07:01:52.300Z,38.08
2022-09-04T07:04:36.020Z,51.42
2022-09-04T07:07:19.052Z,49.00
2022-09-04T07:09:59.919Z,45.92
2022-09-04T07:13:08.356Z,36.78
2022-09-04T07:16:13.622Z,34.25
2022-09-04T07:19:08.691Z,44.67
2022-09-04T07:21:49.814Z,40.05
2022-09-04T07:24:49.248Z,39.70
2022-09-04T07:27:36.309Z,54.70
2022-09-04T07:30:09.260Z,56.97
2022-09-04T07:32:44.156Z,66.25
2022-09-04T07:35:22.069Z,73.07
2022-09-04T07:37:58.756Z,69.57
2022-09-04T07:40:33.797Z,74.50
2022-09-04T07:43:21.409Z,67.10
2022-09-04T07:46:01.037Z,67.00
2022-09-04T07:48:37.618Z,77.55
2022-09-04T07:51:11.683Z,78.10
2022-09-04T07:54:08.561Z,71.50
2022-09-04T07:56:59.372Z,69.10
2022-09-04T08:00:03.927Z,62.92
2022-09-04T08:03:07.039Z,68.07
2022-09-04T08:05:44.952Z,59.92
2022-09-04T08:08:59.387Z,58.50
2022-09-04T08:12:09.117Z,50.78
2022-09-04T08:14:55.350Z,48.80
2022-09-04T08:18:03.948Z,50.15
2022-09-04T08:20:44.099Z,46.50
2022-09-04T08:23:47.268Z,46.28
2022-09-04T08:26:27.224Z,46.42
2022-09-04T08:29:23.236Z,43.53
2022-09-04T08:32:10.851Z,53.25
2022-09-04T08:35:04.023Z,53.72
2022-09-04T08:37:49.437Z,55.28
2022-09-04T08:40:55.091Z,60.70
2022-09-04T08:43:36.004Z,65.82
2022-09-04T08:47:14.119Z,61.47
2022-09-04T08:50:38.083Z,66.38
2022-09-04T08:54:02.407Z,52.08
2022-09-04T08:56:43.104Z,46.33
2022-09-04T08:59:58.773Z,55.08
2022-09-04T09:03:19.426Z,46.25
2022-09-04T09:06:29.915Z,50.25
2022-09-04T09:09:49.948Z,67.45
2022-09-04T09:13:07.825Z,57.10
2022-09-04T09:16:22.149Z,62.10
2022-09-04T09:19:39.717Z,60.28
2022-09-04T09:22:37.598Z,54.15
2022-09-04T09:25:20.924Z,54.05
2022-09-04T09:28:43.880Z,55.17
2022-09-04T09:32:09.935Z,53.75
2022-09-04T09:35:26.737Z,58.60
2022-09-04T09:38:38.875Z,57.78
2022-09-04T09:41:55.411Z,51.55
2022-09-04T09:45:15.529Z,44.50
2022-09-04T09:48:47.861Z,55.75
2022-09-04T09:52:01.149Z,53.22
2022-09-04T09:55:08.008Z,48.25
2022-09-04T09:58:23.987Z,50.95
2022-09-04T10:04:09.951Z,49.78
2022-09-04T10:07:28.418Z,50.60
2022-09-04T10:10:41.613Z,50.47
2022-09-04T10:13:53.319Z,38.40
2022-09-04T10:17:14.258Z,37.88
2022-09-04T10:20:28.780Z,39.00
2022-09-04T10:23:38.408Z,38.70
2022-09-04T10:26:50.775Z,37.63
2022-09-04T10:29:50.687Z,29.13
2022-09-04T10:33:19.980Z,29.08
2022-09-04T10:36:06.474Z,34.40
2022-09-04T10:39:03.381Z,28.27
2022-09-04T10:41:57.380Z,24.38
2022-09-04T10:44:54.667Z,34.63
2022-09-04T10:48:15.325Z,24.13
2022-09-04T10:51:35.293Z,22.27
2022-09-04T10:54:44.998Z,20.52
2022-09-04T10:57:42.876Z,12.88
2022-09-04T11:00:14.520Z,10.15
2022-09-04T11:03:40.160Z,10.98
2022-09-04T11:06:58.312Z,11.38
2022-09-04T11:09:58.860Z,5.78
2022-09-04T11:13:13.137Z,4.45
2022-09-04T11:16:11.236Z,3.80
2022-09-04T11:19:29.765Z,5.88
2022-09-04T11:22:42.967Z,5.03
2022-09-04T11:26:20.839Z,3.42
2022-09-04T11:29:19.197Z,2.40
2022-09-04T11:32:16.792Z,4.47
2022-09-04T11:35:36.187Z,2.25
2022-09-04T11:38:28.742Z,1.48
2022-09-04T11:41:50.824Z,1.13
2022-09-04T11:44:50.989Z,2.22
2022-09-04T11:47:49.129Z,4.90
2022-09-04T11:50:34.676Z,1.42
2022-09-04T11:53:37.278Z,4.43
2022-09-04T11:56:45.836Z,1.30
2022-09-04T11:59:51.771Z,1.23
2022-09-04T12:03:01.059Z,3.20
2022-09-04T12:05:51.198Z,2.88
2022-09-04T12:09:11.648Z,2.55
2022-09-04T12:12:12.769Z,1.83
2022-09-04T12:15:26.087Z,2.28
2022-09-04T12:18:52.035Z,5.47
2022-09-04T12:21:53.027Z,1.60
2022-09-04T12:25:06.304Z,4.13
2022-09-04T12:28:15.765Z,1.40
2022-09-04T12:31:06.622Z,2.25
2022-09-04T12:34:14.689Z,1.13
2022-09-04T12:37:23.760Z,1.63
2022-09-04T12:40:32.801Z,1.48
2022-09-04T12:43:16.477Z,1.92
2022-09-04T12:45:57.065Z,2.50
2022-09-04T12:48:35.647Z,2.40
2022-09-04T12:51:13.376Z,1.50
2022-09-04T12:54:24.912Z,1.25
2022-09-04T12:57:08.817Z,1.83
2022-09-04T12:59:55.676Z,2.07
2022-09-04T13:02:35.663Z,1.42
2022-09-04T13:05:25.540Z,2.03
2022-09-04T13:08:00.404Z,7.88
2022-09-04T13:10:37.502Z,1.48
2022-09-04T13:13:17.951Z,2.88
2022-09-04T13:16:00.379Z,0.85
2022-09-04T13:18:48.770Z,0.80
2022-09-04T13:21:35.832Z,1.70
2022-09-04T13:24:20.869Z,0.90
2022-09-04T13:27:16.571Z,0.93
2022-09-04T13:30:03.970Z,0.60
2022-09-04T13:33:13.711Z,1.77
2022-09-04T13:36:04.419Z,0.73
2022-09-04T13:39:21.527Z,2.90
2022-09-04T13:42:52.363Z,1.10
2022-09-04T13:45:26.419Z,1.38
2022-09-04T13:48:01.049Z,1.65
2022-09-04T13:50:36.721Z,0.80
2022-09-04T13:53:16.594Z,3.88
2022-09-04T13:55:51.799Z,1.80
2022-09-04T13:58:24.844Z,2.65
2022-09-04T14:01:00.326Z,0.73
2022-09-04T14:03:38.011Z,1.38
2022-09-04T14:06:11.094Z,1.05
2022-09-04T14:08:43.185Z,0.70
2022-09-04T14:11:50.685Z,0.98
2022-09-04T14:15:10.694Z,3.40
2022-09-04T14:17:49.555Z,0.85
2022-09-04T14:20:23.109Z,2.40
2022-09-04T14:23:05.746Z,2.33
2022-09-04T14:25:48.616Z,1.65
2022-09-04T14:28:24.440Z,0.70
2022-09-04T14:31:10.638Z,1.27
2022-09-04T14:33:55.860Z,0.90
2022-09-04T14:39:21.186Z,0.90
2022-09-04T14:42:17.920Z,1.00
2022-09-04T14:45:16.264Z,3.50
2022-09-04T14:47:52.074Z,0.80
2022-09-04T14:50:23.432Z,1.42
2022-09-04T14:52:57.728Z,0.75
2022-09-04T14:55:29.952Z,0.57
2022-09-04T14:58:10.146Z,0.82
2022-09-04T15:01:01.060Z,3.38
2022-09-04T15:03:36.834Z,1.15
2022-09-04T15:06:16.135Z,0.70
2022-09-04T15:09:26.935Z,1.05
2022-09-04T15:12:20.890Z,1.05
2022-09-04T15:14:50.511Z,3.13
2022-09-04T15:17:28.198Z,2.15
2022-09-04T15:20:03.839Z,1.33
2022-09-04T15:22:40.496Z,1.30
2022-09-04T15:25:12.749Z,3.03
2022-09-04T15:27:51.984Z,2.08
2022-09-04T15:30:24.592Z,1.15
2022-09-04T15:33:07.047Z,0.52
2022-09-04T15:35:37.292Z,0.50
2022-09-04T15:38:11.223Z,0.73
2022-09-04T15:41:05.826Z,1.48
2022-09-04T15:43:41.167Z,1.45
2022-09-04T15:46:23.240Z,0.98
2022-09-04T15:48:58.731Z,1.95
2022-09-04T15:51:40.207Z,1.63
2022-09-04T15:54:27.004Z,1.70
2022-09-04T15:57:11.036Z,1.08
2022-09-04T15:59:52.166Z,1.23
2022-09-04T16:02:36.532Z,0.73
2022-09-04T16:05:19.499Z,1.65
2022-09-04T16:08:03.097Z,5.40
2022-09-04T16:10:47.640Z,1.30
2022-09-04T16:13:36.763Z,1.52
2022-09-04T16:16:14.783Z,1.42
2022-09-04T16:19:02.649Z,1.77
2022-09-04T16:21:45.317Z,4.07
2022-09-04T16:24:18.229Z,0.85
2022-09-04T16:26:52.071Z,1.00
2022-09-04T16:29:36.593Z,0.77
2022-09-04T16:32:12.190Z,0.63
2022-09-04T16:34:49.861Z,0.70
2022-09-04T16:37:25.916Z,0.85
2022-09-04T16:40:21.211Z,0.82
2022-09-04T16:45:25.756Z,8.85
2022-09-04T16:48:00.418Z,1.07
2022-09-04T16:50:52.421Z,0.75
2022-09-04T16:53:33.360Z,5.75
2022-09-04T16:56:07.432Z,1.30
2022-09-04T16:58:52.652Z,1.60
2022-09-04T17:01:29.432Z,2.15
2022-09-04T17:04:30.748Z,1.00
2022-09-04T17:07:13.109Z,0.90
2022-09-04T17:10:01.613Z,2.38
2022-09-04T17:12:49.509Z,1.55
2022-09-04T17:15:29.636Z,1.48
2022-09-04T17:18:01.219Z,1.55
2022-09-04T17:22:18.816Z,0.77
2022-09-04T17:29:03.640Z,1.98
2022-09-04T17:29:12.868Z,5.07
2022-09-04T17:29:33.736Z,1.67
2022-09-04T17:33:36.883Z,0.80
2022-09-04T17:40:36.705Z,1.58
2022-09-04T17:40:46.823Z,2.65
2022-09-04T17:41:36.106Z,5.50
2022-09-04T17:44:31.798Z,0.90
2022-09-04T17:47:16.899Z,1.98
2022-09-04T17:49:50.247Z,1.73
2022-09-04T17:52:26.946Z,1.30
2022-09-04T17:55:03.160Z,1.48
2022-09-04T17:57:52.696Z,2.50
2022-09-04T18:00:25.058Z,2.28
2022-09-04T18:02:59.033Z,3.47
2022-09-04T18:05:36.389Z,3.35
2022-09-04T18:08:21.363Z,4.15
2022-09-04T18:10:56.045Z,3.70
2022-09-04T18:13:41.124Z,13.20
2022-09-04T18:18:59.329Z,6.75
2022-09-04T18:21:37.529Z,6.03
2022-09-04T18:24:08.211Z,2.75
2022-09-04T18:26:42.105Z,2.33
2022-09-04T18:30:57.198Z,5.50
2022-09-04T18:37:07.617Z,5.53
2022-09-04T18:37:18.981Z,1.58
2022-09-04T18:38:53.712Z,2.17
2022-09-04T18:50:25.755Z,1.45
2022-09-04T18:50:31.761Z,2.15
2022-09-04T18:50:52.509Z,4.22
2022-09-04T18:51:19.574Z,1.63
2022-09-04T18:53:53.898Z,1.88
2022-09-04T18:56:29.337Z,2.28
2022-09-04T18:59:06.166Z,2.42
2022-09-04T19:01:45.530Z,4.00
2022-09-04T19:04:36.007Z,3.28
2022-09-04T19:07:10.375Z,1.17
2022-09-04T19:10:07.207Z,2.95
2022-09-04T19:12:47.690Z,3.88
2022-09-04T19:15:45.090Z,1.73
2022-09-04T19:18:27.376Z,3.72
2022-09-04T19:21:23.301Z,1.70
2022-09-04T19:23:58.903Z,1.63
2022-09-04T19:26:37.889Z,1.00
2022-09-04T19:29:19.384Z,1.30
2022-09-04T19:31:55.150Z,5.15
2022-09-04T19:34:36.552Z,5.57
2022-09-04T19:37:26.044Z,1.58
2022-09-04T19:45:56.907Z,7.63
2022-09-04T19:46:08.365Z,2.45
2022-09-04T19:46:25.985Z,1.30
2022-09-04T19:50:46.168Z,4.27
2022-09-04T19:53:32.174Z,1.40
2022-09-04T19:55:24.433Z,3.55
2022-09-04T19:58:06.649Z,2.67
2022-09-04T20:00:43.476Z,1.92
2022-09-04T20:03:30.293Z,4.97
2022-09-04T20:06:20.909Z,2.47
2022-09-04T20:09:01.716Z,3.25
2022-09-04T20:11:36.588Z,2.65
2022-09-04T20:14:16.152Z,5.03
2022-09-04T20:16:58.633Z,6.72
2022-09-04T20:19:37.377Z,4.95
2022-09-04T20:22:14.747Z,1.73
2022-09-04T20:25:01.496Z,4.20
2022-09-04T20:27:37.800Z,1.85
2022-09-04T20:30:12.681Z,4.40
2022-09-04T20:32:56.311Z,2.88
2022-09-04T20:35:35.363Z,2.47
2022-09-04T20:38:22.931Z,3.75
2022-09-04T20:40:59.566Z,2.65
2022-09-04T20:43:45.504Z,5.43
2022-09-04T20:51:15.517Z,2.05
2022-09-04T20:52:49.298Z,2.65
2022-09-04T20:52:58.421Z,2.35
2022-09-04T20:55:35.996Z,4.25
2022-09-04T21:03:10.523Z,3.37
2022-09-04T21:03:20.989Z,2.30
2022-09-04T21:04:41.879Z,2.83
2022-09-04T21:07:28.009Z,3.10
2022-09-04T21:10:10.243Z,5.20
2022-09-04T21:12:45.123Z,1.70
2022-09-04T21:15:29.356Z,2.65
2022-09-04T21:18:40.175Z,2.88
2022-09-04T21:21:37.424Z,2.28
2022-09-04T21:24:37.591Z,5.88
2022-09-04T21:27:35.872Z,3.97
2022-09-04T21:30:11.031Z,2.53
2022-09-04T21:33:27.571Z,2.38
2022-09-04T21:36:26.585Z,5.43
2022-09-04T21:39:45.225Z,3.58
2022-09-04T21:42:48.245Z,6.63
2022-09-04T21:45:53.655Z,3.40
2022-09-04T21:48:46.880Z,3.67
2022-09-04T21:51:52.201Z,2.03
2022-09-04T21:57:25.937Z,6.90
2022-09-04T22:02:38.283Z,3.80
2022-09-04T22:02:40.458Z,3.55
2022-09-04T22:04:56.719Z,2.03
2022-09-04T22:11:32.734Z,8.73
2022-09-04T22:13:38.522Z,2.78
2022-09-04T22:13:51.196Z,5.30
2022-09-04T22:16:53.115Z,2.85
2022-09-04T22:20:14.379Z,3.28
2022-09-04T22:23:18.527Z,4.18
2022-09-04T22:29:13.015Z,3.28
2022-09-04T22:35:42.187Z,3.55
2022-09-04T22:38:53.985Z,3.08
2022-09-04T22:42:05.371Z,2.85
2022-09-04T22:44:56.656Z,6.80
2022-09-04T22:47:55.857Z,2.78
2022-09-04T22:50:57.608Z,4.80
2022-09-04T22:54:03.368Z,2.60
2022-09-04T22:56:53.059Z,4.50
2022-09-04T23:00:13.795Z,3.97
2022-09-04T23:03:14.564Z,6.30
2022-09-04T23:11:00.386Z,3.83
2022-09-04T23:13:54.384Z,1.98
2022-09-04T23:14:02.933Z,4.20
2022-09-04T23:16:41.598Z,2.53
2022-09-04T23:23:48.898Z,6.18
2022-09-04T23:26:47.560Z,2.83
2022-09-04T23:26:49.221Z,3.85
2022-09-04T23:29:34.673Z,3.75
2022-09-04T23:32:47.939Z,8.80
2022-09-04T23:35:32.129Z,6.60
2022-09-04T23:38:42.066Z,4.35
2022-09-04T23:41:26.261Z,8.23
2022-09-04T23:44:39.795Z,9.02
2022-09-04T23:47:54.188Z,2.53
2022-09-04T23:50:37.724Z,15.68
2022-09-04T23:53:22.741Z,2.40
2022-09-04T23:56:07.207Z,3.75
2022-09-04T23:59:11.872Z,2.47
